sensor_id;sensor_type;location;lat;lon;timestamp;temperature;humidity
65396;HTU21D;52004;45.136;39.010;2024-03-08T00:01:35;3.36;65.24
65396;HTU21D;52004;45.136;39.010;2024-03-08T00:04:01;3.35;65.26
65396;HTU21D;52004;45.136;39.010;2024-03-08T00:06:32;3.36;65.29
65396;HTU21D;52004;45.136;39.010;2024-03-08T00:08:58;3.36;65.34
65396;HTU21D;52004;45.136;39.010;2024-03-08T00:11:24;3.38;65.34
65396;HTU21D;52004;45.136;39.010;2024-03-08T00:13:52;3.40;65.34
65396;HTU21D;52004;45.136;39.010;2024-03-08T00:16:19;3.43;65.31
65396;HTU21D;52004;45.136;39.010;2024-03-08T00:18:48;3.43;65.34
65396;HTU21D;52004;45.136;39.010;2024-03-08T00:21:15;3.45;65.33
65396;HTU21D;52004;45.136;39.010;2024-03-08T00:23:41;3.47;65.32
65396;HTU21D;52004;45.136;39.010;2024-03-08T00:26:07;3.47;65.31
65396;HTU21D;52004;45.136;39.010;2024-03-08T00:28:33;3.47;65.38
65396;HTU21D;52004;45.136;39.010;2024-03-08T00:31:01;3.49;65.36
65396;HTU21D;52004;45.136;39.010;2024-03-08T00:33:28;3.53;65.36
65396;HTU21D;52004;45.136;39.010;2024-03-08T00:35:54;3.55;65.36
65396;HTU21D;52004;45.136;39.010;2024-03-08T00:38:19;3.58;65.33
65396;HTU21D;52004;45.136;39.010;2024-03-08T00:40:45;3.57;65.27
65396;HTU21D;52004;45.136;39.010;2024-03-08T00:43:11;3.57;65.30
65396;HTU21D;52004;45.136;39.010;2024-03-08T00:45:37;3.59;65.30
65396;HTU21D;52004;45.136;39.010;2024-03-08T00:48:04;3.60;65.27
65396;HTU21D;52004;45.136;39.010;2024-03-08T00:50:31;3.58;65.29
65396;HTU21D;52004;45.136;39.010;2024-03-08T00:53:01;3.59;65.34
65396;HTU21D;52004;45.136;39.010;2024-03-08T00:55:38;3.60;65.36
65396;HTU21D;52004;45.136;39.010;2024-03-08T00:58:04;3.62;65.34
65396;HTU21D;52004;45.136;39.010;2024-03-08T01:00:30;3.60;65.37
65396;HTU21D;52004;45.136;39.010;2024-03-08T01:02:56;3.59;65.35
65396;HTU21D;52004;45.136;39.010;2024-03-08T01:05:24;3.60;65.42
65396;HTU21D;52004;45.136;39.010;2024-03-08T01:07:50;3.59;65.39
65396;HTU21D;52004;45.136;39.010;2024-03-08T01:10:17;3.60;65.37
65396;HTU21D;52004;45.136;39.010;2024-03-08T01:12:43;3.58;65.37
65396;HTU21D;52004;45.136;39.010;2024-03-08T01:15:09;3.58;65.40
65396;HTU21D;52004;45.136;39.010;2024-03-08T01:17:36;3.57;65.41
65396;HTU21D;52004;45.136;39.010;2024-03-08T01:20:02;3.56;65.43
65396;HTU21D;52004;45.136;39.010;2024-03-08T01:22:29;3.57;65.45
65396;HTU21D;52004;45.136;39.010;2024-03-08T01:24:55;3.54;65.45
65396;HTU21D;52004;45.136;39.010;2024-03-08T01:27:21;3.56;65.47
65396;HTU21D;52004;45.136;39.010;2024-03-08T01:29:47;3.55;65.40
65396;HTU21D;52004;45.136;39.010;2024-03-08T01:32:13;3.54;65.39
65396;HTU21D;52004;45.136;39.010;2024-03-08T01:34:40;3.54;65.33
65396;HTU21D;52004;45.136;39.010;2024-03-08T01:37:06;3.50;65.33
65396;HTU21D;52004;45.136;39.010;2024-03-08T01:39:32;3.46;65.37
65396;HTU21D;52004;45.136;39.010;2024-03-08T01:41:58;3.43;65.42
65396;HTU21D;52004;45.136;39.010;2024-03-08T01:44:24;3.40;65.50
65396;HTU21D;52004;45.136;39.010;2024-03-08T01:46:50;3.39;65.51
65396;HTU21D;52004;45.136;39.010;2024-03-08T01:49:18;3.39;65.53
65396;HTU21D;52004;45.136;39.010;2024-03-08T01:51:46;3.39;65.53
65396;HTU21D;52004;45.136;39.010;2024-03-08T01:54:13;3.39;65.52
65396;HTU21D;52004;45.136;39.010;2024-03-08T01:56:40;3.36;65.50
65396;HTU21D;52004;45.136;39.010;2024-03-08T01:59:06;3.36;65.49
65396;HTU21D;52004;45.136;39.010;2024-03-08T02:01:35;3.36;65.50
65396;HTU21D;52004;45.136;39.010;2024-03-08T02:04:01;3.34;65.50
65396;HTU21D;52004;45.136;39.010;2024-03-08T02:06:27;3.36;65.51
65396;HTU21D;52004;45.136;39.010;2024-03-08T02:08:53;3.38;65.52
65396;HTU21D;52004;45.136;39.010;2024-03-08T02:11:21;3.39;65.47
65396;HTU21D;52004;45.136;39.010;2024-03-08T02:14:04;3.40;65.48
65396;HTU21D;52004;45.136;39.010;2024-03-08T02:16:32;3.39;65.47
65396;HTU21D;52004;45.136;39.010;2024-03-08T02:18:59;3.39;65.47
65396;HTU21D;52004;45.136;39.010;2024-03-08T02:21:24;3.38;65.50
65396;HTU21D;52004;45.136;39.010;2024-03-08T02:23:51;3.36;65.50
65396;HTU21D;52004;45.136;39.010;2024-03-08T02:26:19;3.35;65.53
65396;HTU21D;52004;45.136;39.010;2024-03-08T02:28:46;3.34;65.56
65396;HTU21D;52004;45.136;39.010;2024-03-08T02:31:12;3.34;65.63
65396;HTU21D;52004;45.136;39.010;2024-03-08T02:33:38;3.33;65.63
65396;HTU21D;52004;45.136;39.010;2024-03-08T02:36:04;3.32;65.65
65396;HTU21D;52004;45.136;39.010;2024-03-08T02:38:31;3.32;65.64
65396;HTU21D;52004;45.136;39.010;2024-03-08T02:40:58;3.31;65.63
65396;HTU21D;52004;45.136;39.010;2024-03-08T02:43:24;3.28;65.65
65396;HTU21D;52004;45.136;39.010;2024-03-08T02:45:50;3.28;65.69
65396;HTU21D;52004;45.136;39.010;2024-03-08T02:48:18;3.27;65.73
65396;HTU21D;52004;45.136;39.010;2024-03-08T02:50:44;3.29;65.76
65396;HTU21D;52004;45.136;39.010;2024-03-08T02:53:10;3.31;65.77
65396;HTU21D;52004;45.136;39.010;2024-03-08T02:55:37;3.33;65.76
65396;HTU21D;52004;45.136;39.010;2024-03-08T02:58:03;3.32;65.74
65396;HTU21D;52004;45.136;39.010;2024-03-08T03:00:30;3.30;65.75
65396;HTU21D;52004;45.136;39.010;2024-03-08T03:02:59;3.26;65.81
65396;HTU21D;52004;45.136;39.010;2024-03-08T03:05:28;3.26;65.82
65396;HTU21D;52004;45.136;39.010;2024-03-08T03:07:55;3.25;65.86
65396;HTU21D;52004;45.136;39.010;2024-03-08T03:10:21;3.27;65.88
65396;HTU21D;52004;45.136;39.010;2024-03-08T03:12:50;3.27;65.87
65396;HTU21D;52004;45.136;39.010;2024-03-08T03:15:16;3.28;65.88
65396;HTU21D;52004;45.136;39.010;2024-03-08T03:17:49;3.30;65.87
65396;HTU21D;52004;45.136;39.010;2024-03-08T03:20:18;3.33;65.86
65396;HTU21D;52004;45.136;39.010;2024-03-08T03:22:58;3.33;65.81
65396;HTU21D;52004;45.136;39.010;2024-03-08T03:25:26;3.33;65.80
65396;HTU21D;52004;45.136;39.010;2024-03-08T03:27:58;3.32;65.85
65396;HTU21D;52004;45.136;39.010;2024-03-08T03:30:24;3.32;65.82
65396;HTU21D;52004;45.136;39.010;2024-03-08T03:32:52;3.32;65.82
65396;HTU21D;52004;45.136;39.010;2024-03-08T03:35:22;3.33;65.82
65396;HTU21D;52004;45.136;39.010;2024-03-08T03:37:49;3.32;65.80
65396;HTU21D;52004;45.136;39.010;2024-03-08T03:40:28;3.33;65.82
65396;HTU21D;52004;45.136;39.010;2024-03-08T03:42:55;3.32;65.82
65396;HTU21D;52004;45.136;39.010;2024-03-08T03:45:21;3.34;65.81
65396;HTU21D;52004;45.136;39.010;2024-03-08T03:47:48;3.35;65.85
65396;HTU21D;52004;45.136;39.010;2024-03-08T03:50:13;3.36;65.88
65396;HTU21D;52004;45.136;39.010;2024-03-08T03:52:39;3.39;65.89
65396;HTU21D;52004;45.136;39.010;2024-03-08T03:55:07;3.40;65.86
65396;HTU21D;52004;45.136;39.010;2024-03-08T03:57:33;3.40;65.85
65396;HTU21D;52004;45.136;39.010;2024-03-08T03:59:59;3.35;65.91
65396;HTU21D;52004;45.136;39.010;2024-03-08T04:02:25;3.34;65.99
65396;HTU21D;52004;45.136;39.010;2024-03-08T04:04:52;3.34;66.03
65396;HTU21D;52004;45.136;39.010;2024-03-08T04:07:18;3.38;66.04
65396;HTU21D;52004;45.136;39.010;2024-03-08T04:09:44;3.38;65.98
65396;HTU21D;52004;45.136;39.010;2024-03-08T04:12:09;3.40;66.01
65396;HTU21D;52004;45.136;39.010;2024-03-08T04:14:35;3.42;66.04
65396;HTU21D;52004;45.136;39.010;2024-03-08T04:17:02;3.46;65.96
65396;HTU21D;52004;45.136;39.010;2024-03-08T04:19:28;3.47;65.97
65396;HTU21D;52004;45.136;39.010;2024-03-08T04:21:55;3.52;65.92
65396;HTU21D;52004;45.136;39.010;2024-03-08T04:24:20;3.53;65.92
65396;HTU21D;52004;45.136;39.010;2024-03-08T04:26:46;3.53;65.88
65396;HTU21D;52004;45.136;39.010;2024-03-08T04:29:13;3.53;65.88
65396;HTU21D;52004;45.136;39.010;2024-03-08T04:31:40;3.50;65.88
65396;HTU21D;52004;45.136;39.010;2024-03-08T04:34:06;3.49;65.91
65396;HTU21D;52004;45.136;39.010;2024-03-08T04:36:32;3.48;65.94
65396;HTU21D;52004;45.136;39.010;2024-03-08T04:38:59;3.47;65.97
65396;HTU21D;52004;45.136;39.010;2024-03-08T04:41:26;3.47;65.97
65396;HTU21D;52004;45.136;39.010;2024-03-08T04:43:52;3.47;65.98
65396;HTU21D;52004;45.136;39.010;2024-03-08T04:46:18;3.48;66.00
65396;HTU21D;52004;45.136;39.010;2024-03-08T04:48:44;3.49;66.03
65396;HTU21D;52004;45.136;39.010;2024-03-08T04:51:11;3.49;66.04
65396;HTU21D;52004;45.136;39.010;2024-03-08T04:53:37;3.49;66.07
65396;HTU21D;52004;45.136;39.010;2024-03-08T04:56:02;3.53;66.12
65396;HTU21D;52004;45.136;39.010;2024-03-08T04:58:32;3.55;66.08
65396;HTU21D;52004;45.136;39.010;2024-03-08T05:01:00;3.57;66.09
65396;HTU21D;52004;45.136;39.010;2024-03-08T05:03:27;3.61;66.07
65396;HTU21D;52004;45.136;39.010;2024-03-08T05:05:52;3.61;65.99
65396;HTU21D;52004;45.136;39.010;2024-03-08T05:08:18;3.61;66.03
65396;HTU21D;52004;45.136;39.010;2024-03-08T05:10:45;3.61;66.05
65396;HTU21D;52004;45.136;39.010;2024-03-08T05:13:12;3.62;66.06
65396;HTU21D;52004;45.136;39.010;2024-03-08T05:15:38;3.63;66.04
65396;HTU21D;52004;45.136;39.010;2024-03-08T05:18:05;3.65;66.04
65396;HTU21D;52004;45.136;39.010;2024-03-08T05:20:31;3.67;66.04
65396;HTU21D;52004;45.136;39.010;2024-03-08T05:22:57;3.69;65.99
65396;HTU21D;52004;45.136;39.010;2024-03-08T05:25:26;3.69;65.95
65396;HTU21D;52004;45.136;39.010;2024-03-08T05:27:52;3.69;65.95
65396;HTU21D;52004;45.136;39.010;2024-03-08T05:30:18;3.65;65.95
65396;HTU21D;52004;45.136;39.010;2024-03-08T05:32:44;3.61;66.01
65396;HTU21D;52004;45.136;39.010;2024-03-08T05:35:12;3.59;66.06
65396;HTU21D;52004;45.136;39.010;2024-03-08T05:37:41;3.60;66.11
65396;HTU21D;52004;45.136;39.010;2024-03-08T05:40:08;3.61;66.07
65396;HTU21D;52004;45.136;39.010;2024-03-08T05:42:35;3.60;66.04
65396;HTU21D;52004;45.136;39.010;2024-03-08T05:45:04;3.58;66.11
65396;HTU21D;52004;45.136;39.010;2024-03-08T05:47:32;3.54;66.11
65396;HTU21D;52004;45.136;39.010;2024-03-08T05:50:01;3.53;66.16
65396;HTU21D;52004;45.136;39.010;2024-03-08T05:52:27;3.54;66.16
65396;HTU21D;52004;45.136;39.010;2024-03-08T05:54:53;3.55;66.17
65396;HTU21D;52004;45.136;39.010;2024-03-08T05:57:19;3.53;66.11
65396;HTU21D;52004;45.136;39.010;2024-03-08T05:59:44;3.53;66.09
65396;HTU21D;52004;45.136;39.010;2024-03-08T06:02:11;3.53;66.08
65396;HTU21D;52004;45.136;39.010;2024-03-08T06:04:36;3.52;66.14
65396;HTU21D;52004;45.136;39.010;2024-03-08T06:07:03;3.52;66.16
65396;HTU21D;52004;45.136;39.010;2024-03-08T06:09:29;3.54;66.18
65396;HTU21D;52004;45.136;39.010;2024-03-08T06:11:55;3.55;66.20
65396;HTU21D;52004;45.136;39.010;2024-03-08T06:14:22;3.58;66.20
65396;HTU21D;52004;45.136;39.010;2024-03-08T06:16:48;3.61;66.20
65396;HTU21D;52004;45.136;39.010;2024-03-08T06:19:17;3.62;66.17
65396;HTU21D;52004;45.136;39.010;2024-03-08T06:21:44;3.64;66.12
65396;HTU21D;52004;45.136;39.010;2024-03-08T06:24:09;3.64;66.11
65396;HTU21D;52004;45.136;39.010;2024-03-08T06:26:35;3.64;66.14
65396;HTU21D;52004;45.136;39.010;2024-03-08T06:29:03;3.63;66.13
65396;HTU21D;52004;45.136;39.010;2024-03-08T06:31:32;3.61;66.20
65396;HTU21D;52004;45.136;39.010;2024-03-08T06:33:58;3.64;66.27
65396;HTU21D;52004;45.136;39.010;2024-03-08T06:36:24;3.67;66.20
65396;HTU21D;52004;45.136;39.010;2024-03-08T06:38:50;3.68;66.23
65396;HTU21D;52004;45.136;39.010;2024-03-08T06:41:16;3.69;66.23
65396;HTU21D;52004;45.136;39.010;2024-03-08T06:43:45;3.72;66.24
65396;HTU21D;52004;45.136;39.010;2024-03-08T06:46:12;3.73;66.17
65396;HTU21D;52004;45.136;39.010;2024-03-08T06:48:41;3.74;66.17
65396;HTU21D;52004;45.136;39.010;2024-03-08T06:51:07;3.75;66.20
65396;HTU21D;52004;45.136;39.010;2024-03-08T06:53:33;3.78;66.17
65396;HTU21D;52004;45.136;39.010;2024-03-08T06:56:01;3.78;66.16
65396;HTU21D;52004;45.136;39.010;2024-03-08T06:58:27;3.82;66.15
65396;HTU21D;52004;45.136;39.010;2024-03-08T07:00:53;3.83;66.16
65396;HTU21D;52004;45.136;39.010;2024-03-08T07:03:21;3.84;66.16
65396;HTU21D;52004;45.136;39.010;2024-03-08T07:05:47;3.83;66.24
65396;HTU21D;52004;45.136;39.010;2024-03-08T07:08:13;3.85;66.26
65396;HTU21D;52004;45.136;39.010;2024-03-08T07:10:40;3.84;66.30
65396;HTU21D;52004;45.136;39.010;2024-03-08T07:13:10;3.86;66.35
65396;HTU21D;52004;45.136;39.010;2024-03-08T07:15:36;3.87;66.31
65396;HTU21D;52004;45.136;39.010;2024-03-08T07:20:53;3.97;66.36
65396;HTU21D;52004;45.136;39.010;2024-03-08T07:23:19;3.99;66.28
65396;HTU21D;52004;45.136;39.010;2024-03-08T07:26:03;4.01;66.35
65396;HTU21D;52004;45.136;39.010;2024-03-08T07:28:29;4.06;66.35
65396;HTU21D;52004;45.136;39.010;2024-03-08T07:30:57;4.10;66.29
65396;HTU21D;52004;45.136;39.010;2024-03-08T07:33:38;4.13;66.24
65396;HTU21D;52004;45.136;39.010;2024-03-08T07:36:04;4.13;66.14
65396;HTU21D;52004;45.136;39.010;2024-03-08T07:38:30;4.09;66.14
65396;HTU21D;52004;45.136;39.010;2024-03-08T07:40:56;4.09;66.14
65396;HTU21D;52004;45.136;39.010;2024-03-08T07:43:22;4.09;66.17
65396;HTU21D;52004;45.136;39.010;2024-03-08T07:45:48;4.06;66.14
65396;HTU21D;52004;45.136;39.010;2024-03-08T07:48:14;4.05;66.18
65396;HTU21D;52004;45.136;39.010;2024-03-08T07:50:42;4.06;66.22
65396;HTU21D;52004;45.136;39.010;2024-03-08T07:53:08;4.05;66.26
65396;HTU21D;52004;45.136;39.010;2024-03-08T07:55:34;4.06;66.23
65396;HTU21D;52004;45.136;39.010;2024-03-08T07:58:01;4.05;66.20
65396;HTU21D;52004;45.136;39.010;2024-03-08T08:00:27;4.06;66.30
65396;HTU21D;52004;45.136;39.010;2024-03-08T08:02:53;4.08;66.31
65396;HTU21D;52004;45.136;39.010;2024-03-08T08:05:19;4.08;66.23
65396;HTU21D;52004;45.136;39.010;2024-03-08T08:07:45;4.06;66.28
65396;HTU21D;52004;45.136;39.010;2024-03-08T08:10:12;4.06;66.33
65396;HTU21D;52004;45.136;39.010;2024-03-08T08:12:49;4.10;66.34
65396;HTU21D;52004;45.136;39.010;2024-03-08T08:15:15;4.14;66.32
65396;HTU21D;52004;45.136;39.010;2024-03-08T08:17:42;4.17;66.25
65396;HTU21D;52004;45.136;39.010;2024-03-08T08:20:08;4.18;66.27
65396;HTU21D;52004;45.136;39.010;2024-03-08T08:22:34;4.18;66.21
65396;HTU21D;52004;45.136;39.010;2024-03-08T08:25:00;4.21;66.17
65396;HTU21D;52004;45.136;39.010;2024-03-08T08:27:27;4.20;66.17
65396;HTU21D;52004;45.136;39.010;2024-03-08T08:29:53;4.21;66.25
65396;HTU21D;52004;45.136;39.010;2024-03-08T08:32:19;4.26;66.28
65396;HTU21D;52004;45.136;39.010;2024-03-08T08:34:45;4.28;66.20
65396;HTU21D;52004;45.136;39.010;2024-03-08T08:37:11;4.27;66.13
65396;HTU21D;52004;45.136;39.010;2024-03-08T08:39:37;4.24;66.19
65396;HTU21D;52004;45.136;39.010;2024-03-08T08:42:03;4.27;66.29
65396;HTU21D;52004;45.136;39.010;2024-03-08T08:44:30;4.29;66.34
65396;HTU21D;52004;45.136;39.010;2024-03-08T08:46:57;4.33;66.27
65396;HTU21D;52004;45.136;39.010;2024-03-08T08:49:24;4.36;66.24
65396;HTU21D;52004;45.136;39.010;2024-03-08T08:51:51;4.41;66.16
65396;HTU21D;52004;45.136;39.010;2024-03-08T08:54:17;4.42;66.11
65396;HTU21D;52004;45.136;39.010;2024-03-08T08:56:44;4.41;66.07
65396;HTU21D;52004;45.136;39.010;2024-03-08T08:59:10;4.37;66.00
65396;HTU21D;52004;45.136;39.010;2024-03-08T09:01:39;4.31;66.02
65396;HTU21D;52004;45.136;39.010;2024-03-08T09:04:05;4.23;66.11
65396;HTU21D;52004;45.136;39.010;2024-03-08T09:06:31;4.16;66.27
65396;HTU21D;52004;45.136;39.010;2024-03-08T09:08:57;4.18;66.44
65396;HTU21D;52004;45.136;39.010;2024-03-08T09:11:23;4.22;66.44
65396;HTU21D;52004;45.136;39.010;2024-03-08T09:13:51;4.23;66.37
65396;HTU21D;52004;45.136;39.010;2024-03-08T09:16:17;4.22;66.36
65396;HTU21D;52004;45.136;39.010;2024-03-08T09:18:42;4.21;66.43
65396;HTU21D;52004;45.136;39.010;2024-03-08T09:21:08;4.24;66.47
65396;HTU21D;52004;45.136;39.010;2024-03-08T09:23:35;4.30;66.43
65396;HTU21D;52004;45.136;39.010;2024-03-08T09:26:02;4.35;66.47
65396;HTU21D;52004;45.136;39.010;2024-03-08T09:28:29;4.44;66.43
65396;HTU21D;52004;45.136;39.010;2024-03-08T09:30:55;4.48;66.30
65396;HTU21D;52004;45.136;39.010;2024-03-08T09:33:21;4.52;66.27
65396;HTU21D;52004;45.136;39.010;2024-03-08T09:35:47;4.53;66.19
65396;HTU21D;52004;45.136;39.010;2024-03-08T09:38:16;4.53;66.15
65396;HTU21D;52004;45.136;39.010;2024-03-08T09:40:42;4.53;66.07
65396;HTU21D;52004;45.136;39.010;2024-03-08T09:43:12;4.51;66.04
65396;HTU21D;52004;45.136;39.010;2024-03-08T09:45:38;4.50;66.09
65396;HTU21D;52004;45.136;39.010;2024-03-08T09:48:10;4.50;66.12
65396;HTU21D;52004;45.136;39.010;2024-03-08T09:50:38;4.52;66.05
65396;HTU21D;52004;45.136;39.010;2024-03-08T09:53:04;4.51;66.04
65396;HTU21D;52004;45.136;39.010;2024-03-08T09:55:37;4.52;66.06
65396;HTU21D;52004;45.136;39.010;2024-03-08T09:58:05;4.53;66.01
65396;HTU21D;52004;45.136;39.010;2024-03-08T10:00:49;4.54;66.03
65396;HTU21D;52004;45.136;39.010;2024-03-08T10:03:16;4.56;66.07
65396;HTU21D;52004;45.136;39.010;2024-03-08T10:05:42;4.60;66.10
65396;HTU21D;52004;45.136;39.010;2024-03-08T10:08:10;4.63;66.07
65396;HTU21D;52004;45.136;39.010;2024-03-08T10:10:36;4.64;65.99
65396;HTU21D;52004;45.136;39.010;2024-03-08T10:13:06;4.65;65.98
65396;HTU21D;52004;45.136;39.010;2024-03-08T10:15:32;4.66;66.01
65396;HTU21D;52004;45.136;39.010;2024-03-08T10:18:01;4.66;66.06
65396;HTU21D;52004;45.136;39.010;2024-03-08T10:20:30;4.68;65.97
65396;HTU21D;52004;45.136;39.010;2024-03-08T10:23:05;4.68;66.03
65396;HTU21D;52004;45.136;39.010;2024-03-08T10:25:32;4.69;66.04
65396;HTU21D;52004;45.136;39.010;2024-03-08T10:27:58;4.69;65.96
65396;HTU21D;52004;45.136;39.010;2024-03-08T10:30:49;4.69;66.00
65396;HTU21D;52004;45.136;39.010;2024-03-08T10:33:15;4.66;66.00
65396;HTU21D;52004;45.136;39.010;2024-03-08T10:35:41;4.68;66.06
65396;HTU21D;52004;45.136;39.010;2024-03-08T10:38:07;4.69;66.05
65396;HTU21D;52004;45.136;39.010;2024-03-08T10:40:34;4.69;66.01
65396;HTU21D;52004;45.136;39.010;2024-03-08T10:43:01;4.67;65.94
65396;HTU21D;52004;45.136;39.010;2024-03-08T10:51:13;4.65;66.00
65396;HTU21D;52004;45.136;39.010;2024-03-08T10:53:41;4.65;65.95
65396;HTU21D;52004;45.136;39.010;2024-03-08T10:56:07;4.64;65.95
65396;HTU21D;52004;45.136;39.010;2024-03-08T10:58:35;4.59;65.88
65396;HTU21D;52004;45.136;39.010;2024-03-08T11:01:01;4.54;65.98
65396;HTU21D;52004;45.136;39.010;2024-03-08T11:06:06;4.51;66.07
65396;HTU21D;52004;45.136;39.010;2024-03-08T11:08:33;4.52;66.10
65396;HTU21D;52004;45.136;39.010;2024-03-08T11:11:01;4.53;66.14
65396;HTU21D;52004;45.136;39.010;2024-03-08T11:16:37;4.59;65.98
65396;HTU21D;52004;45.136;39.010;2024-03-08T11:19:06;4.60;65.99
65396;HTU21D;52004;45.136;39.010;2024-03-08T11:21:36;4.61;66.01
65396;HTU21D;52004;45.136;39.010;2024-03-08T11:24:09;4.60;66.01
65396;HTU21D;52004;45.136;39.010;2024-03-08T11:26:37;0.00;66.08
65396;HTU21D;52004;45.136;39.010;2024-03-08T11:31:49;4.67;66.06
65396;HTU21D;52004;45.136;39.010;2024-03-08T11:34:15;4.71;66.03
65396;HTU21D;52004;45.136;39.010;2024-03-08T11:36:41;4.74;66.02
65396;HTU21D;52004;45.136;39.010;2024-03-08T11:39:07;4.79;65.96
65396;HTU21D;52004;45.136;39.010;2024-03-08T11:41:40;4.81;65.91
65396;HTU21D;52004;45.136;39.010;2024-03-08T11:44:07;4.84;65.92
65396;HTU21D;52004;45.136;39.010;2024-03-08T11:46:33;4.86;65.89
65396;HTU21D;52004;45.136;39.010;2024-03-08T11:48:59;4.86;65.88
65396;HTU21D;52004;45.136;39.010;2024-03-08T11:51:26;4.86;65.86
65396;HTU21D;52004;45.136;39.010;2024-03-08T11:53:52;4.86;65.85
65396;HTU21D;52004;45.136;39.010;2024-03-08T11:56:18;4.86;65.85
65396;HTU21D;52004;45.136;39.010;2024-03-08T11:58:54;4.87;65.78
65396;HTU21D;52004;45.136;39.010;2024-03-08T12:01:23;4.87;65.80
65396;HTU21D;52004;45.136;39.010;2024-03-08T12:03:56;4.86;65.78
65396;HTU21D;52004;45.136;39.010;2024-03-08T12:06:25;4.83;65.77
65396;HTU21D;52004;45.136;39.010;2024-03-08T12:08:52;4.83;65.79
65396;HTU21D;52004;45.136;39.010;2024-03-08T12:11:22;4.82;65.78
65396;HTU21D;52004;45.136;39.010;2024-03-08T12:13:50;4.81;65.75
65396;HTU21D;52004;45.136;39.010;2024-03-08T12:16:17;4.75;65.78
65396;HTU21D;52004;45.136;39.010;2024-03-08T12:18:50;4.73;65.90
65396;HTU21D;52004;45.136;39.010;2024-03-08T12:21:17;4.73;65.88
65396;HTU21D;52004;45.136;39.010;2024-03-08T12:23:46;4.71;65.93
65396;HTU21D;52004;45.136;39.010;2024-03-08T12:26:17;4.66;65.88
65396;HTU21D;52004;45.136;39.010;2024-03-08T12:28:43;4.64;65.98
65396;HTU21D;52004;45.136;39.010;2024-03-08T12:31:16;4.65;66.01
65396;HTU21D;52004;45.136;39.010;2024-03-08T12:33:54;4.65;66.01
65396;HTU21D;52004;45.136;39.010;2024-03-08T12:36:22;4.66;66.00
65396;HTU21D;52004;45.136;39.010;2024-03-08T12:38:48;4.68;66.05
65396;HTU21D;52004;45.136;39.010;2024-03-08T12:41:14;4.71;66.03
65396;HTU21D;52004;45.136;39.010;2024-03-08T12:43:41;4.73;65.96
65396;HTU21D;52004;45.136;39.010;2024-03-08T12:46:07;4.71;65.82
65396;HTU21D;52004;45.136;39.010;2024-03-08T12:48:34;4.65;65.88
65396;HTU21D;52004;45.136;39.010;2024-03-08T12:51:01;4.61;65.92
65396;HTU21D;52004;45.136;39.010;2024-03-08T12:53:27;4.59;65.99
65396;HTU21D;52004;45.136;39.010;2024-03-08T12:55:54;4.60;66.01
65396;HTU21D;52004;45.136;39.010;2024-03-08T12:58:22;4.60;65.96
65396;HTU21D;52004;45.136;39.010;2024-03-08T13:00:48;4.61;66.00
65396;HTU21D;52004;45.136;39.010;2024-03-08T13:03:14;4.62;65.96
65396;HTU21D;52004;45.136;39.010;2024-03-08T13:05:40;4.65;65.95
65396;HTU21D;52004;45.136;39.010;2024-03-08T13:08:08;4.66;65.86
65396;HTU21D;52004;45.136;39.010;2024-03-08T13:10:41;4.66;65.84
65396;HTU21D;52004;45.136;39.010;2024-03-08T13:13:09;4.67;65.83
65396;HTU21D;52004;45.136;39.010;2024-03-08T13:15:35;4.68;65.79
65396;HTU21D;52004;45.136;39.010;2024-03-08T13:18:01;4.65;65.72
65396;HTU21D;52004;45.136;39.010;2024-03-08T13:20:28;4.60;65.74
65396;HTU21D;52004;45.136;39.010;2024-03-08T13:22:55;4.52;65.75
65396;HTU21D;52004;45.136;39.010;2024-03-08T13:25:22;4.47;65.94
65396;HTU21D;52004;45.136;39.010;2024-03-08T13:27:49;4.45;65.95
65396;HTU21D;52004;45.136;39.010;2024-03-08T13:30:15;4.42;66.00
65396;HTU21D;52004;45.136;39.010;2024-03-08T13:32:44;4.44;66.07
65396;HTU21D;52004;45.136;39.010;2024-03-08T13:35:10;4.43;66.08
65396;HTU21D;52004;45.136;39.010;2024-03-08T13:37:42;4.44;66.08
65396;HTU21D;52004;45.136;39.010;2024-03-08T13:40:08;4.47;66.04
65396;HTU21D;52004;45.136;39.010;2024-03-08T13:42:42;4.49;66.01
65396;HTU21D;52004;45.136;39.010;2024-03-08T13:45:08;4.49;65.97
65396;HTU21D;52004;45.136;39.010;2024-03-08T13:47:40;4.48;65.91
65396;HTU21D;52004;45.136;39.010;2024-03-08T13:50:06;4.48;65.92
65396;HTU21D;52004;45.136;39.010;2024-03-08T13:52:33;4.46;65.96
65396;HTU21D;52004;45.136;39.010;2024-03-08T13:55:00;4.49;65.97
65396;HTU21D;52004;45.136;39.010;2024-03-08T13:57:26;4.51;65.93
65396;HTU21D;52004;45.136;39.010;2024-03-08T13:59:52;4.53;65.89
65396;HTU21D;52004;45.136;39.010;2024-03-08T14:02:19;4.54;65.87
65396;HTU21D;52004;45.136;39.010;2024-03-08T14:04:45;4.56;65.85
65396;HTU21D;52004;45.136;39.010;2024-03-08T14:07:11;4.58;65.85
65396;HTU21D;52004;45.136;39.010;2024-03-08T14:09:36;4.59;65.85
65396;HTU21D;52004;45.136;39.010;2024-03-08T14:12:03;4.62;65.83
65396;HTU21D;52004;45.136;39.010;2024-03-08T14:14:33;4.64;65.80
65396;HTU21D;52004;45.136;39.010;2024-03-08T14:17:00;4.66;65.72
65396;HTU21D;52004;45.136;39.010;2024-03-08T14:19:27;4.64;65.70
65396;HTU21D;52004;45.136;39.010;2024-03-08T14:21:53;4.62;65.69
65396;HTU21D;52004;45.136;39.010;2024-03-08T14:24:19;0.00;65.72
65396;HTU21D;52004;45.136;39.010;2024-03-08T14:26:45;4.59;65.73
65396;HTU21D;52004;45.136;39.010;2024-03-08T14:29:15;4.57;65.69
65396;HTU21D;52004;45.136;39.010;2024-03-08T14:31:40;4.50;65.72
65396;HTU21D;52004;45.136;39.010;2024-03-08T14:34:09;4.47;65.82
65396;HTU21D;52004;45.136;39.010;2024-03-08T14:36:36;4.45;65.87
65396;HTU21D;52004;45.136;39.010;2024-03-08T14:39:28;4.44;65.89
65396;HTU21D;52004;45.136;39.010;2024-03-08T14:41:55;4.45;65.94
65396;HTU21D;52004;45.136;39.010;2024-03-08T14:44:21;4.46;65.90
65396;HTU21D;52004;45.136;39.010;2024-03-08T14:46:52;0.00;65.83
65396;HTU21D;52004;45.136;39.010;2024-03-08T14:49:17;4.42;65.82
65396;HTU21D;52004;45.136;39.010;2024-03-08T14:51:44;4.38;65.88
65396;HTU21D;52004;45.136;39.010;2024-03-08T14:54:10;4.39;65.91
65396;HTU21D;52004;45.136;39.010;2024-03-08T14:56:36;4.41;65.93
65396;HTU21D;52004;45.136;39.010;2024-03-08T14:59:02;4.42;65.88
65396;HTU21D;52004;45.136;39.010;2024-03-08T15:01:30;4.45;65.80
65396;HTU21D;52004;45.136;39.010;2024-03-08T15:03:58;4.43;65.74
65396;HTU21D;52004;45.136;39.010;2024-03-08T15:06:35;4.39;65.76
65396;HTU21D;52004;45.136;39.010;2024-03-08T15:09:02;4.36;65.88
65396;HTU21D;52004;45.136;39.010;2024-03-08T15:11:37;4.36;65.88
65396;HTU21D;52004;45.136;39.010;2024-03-08T15:14:30;4.37;65.92
65396;HTU21D;52004;45.136;39.010;2024-03-08T15:16:56;4.36;65.89
65396;HTU21D;52004;45.136;39.010;2024-03-08T15:19:21;4.38;65.88
65396;HTU21D;52004;45.136;39.010;2024-03-08T15:21:47;4.37;65.82
65396;HTU21D;52004;45.136;39.010;2024-03-08T15:24:16;4.34;65.83
65396;HTU21D;52004;45.136;39.010;2024-03-08T15:26:46;4.32;65.85
65396;HTU21D;52004;45.136;39.010;2024-03-08T15:29:15;4.32;65.88
65396;HTU21D;52004;45.136;39.010;2024-03-08T15:31:41;4.32;65.89
65396;HTU21D;52004;45.136;39.010;2024-03-08T15:34:08;4.34;65.85